sensor_id;sensor_type;location;lat;lon;timestamp;temperature;humidity
49224;DHT22;35050;51.316;5.994;2023-06-04T00:00:25;17.20;74.40
49224;DHT22;35050;51.316;5.994;2023-06-04T00:02:51;17.10;74.30
49224;DHT22;35050;51.316;5.994;2023-06-04T00:05:16;17.10;74.50
49224;DHT22;35050;51.316;5.994;2023-06-04T00:07:43;17.00;74.60
49224;DHT22;35050;51.316;5.994;2023-06-04T00:10:09;16.90;74.80
49224;DHT22;35050;51.316;5.994;2023-06-04T00:12:35;16.80;75.00
49224;DHT22;35050;51.316;5.994;2023-06-04T00:15:01;16.40;75.30
49224;DHT22;35050;51.316;5.994;2023-06-04T00:17:27;16.60;75.60
49224;DHT22;35050;51.316;5.994;2023-06-04T00:19:53;16.40;75.80
49224;DHT22;35050;51.316;5.994;2023-06-04T00:22:18;16.40;75.50
49224;DHT22;35050;51.316;5.994;2023-06-04T00:24:44;16.60;75.80
49224;DHT22;35050;51.316;5.994;2023-06-04T00:27:09;16.50;75.90
49224;DHT22;35050;51.316;5.994;2023-06-04T00:29:35;16.50;76.40
49224;DHT22;35050;51.316;5.994;2023-06-04T00:32:02;16.50;76.20
49224;DHT22;35050;51.316;5.994;2023-06-04T00:34:27;16.40;76.40
49224;DHT22;35050;51.316;5.994;2023-06-04T00:36:53;16.30;76.60
49224;DHT22;35050;51.316;5.994;2023-06-04T00:39:18;16.40;77.00
49224;DHT22;35050;51.316;5.994;2023-06-04T00:41:45;16.40;77.30
49224;DHT22;35050;51.316;5.994;2023-06-04T00:44:10;16.30;77.20
49224;DHT22;35050;51.316;5.994;2023-06-04T00:46:37;16.30;77.30
49224;DHT22;35050;51.316;5.994;2023-06-04T00:49:04;16.10;77.10
49224;DHT22;35050;51.316;5.994;2023-06-04T00:51:31;16.00;77.90
49224;DHT22;35050;51.316;5.994;2023-06-04T00:53:58;16.20;77.70
49224;DHT22;35050;51.316;5.994;2023-06-04T00:56:24;16.00;77.90
49224;DHT22;35050;51.316;5.994;2023-06-04T00:58:49;16.10;78.20
49224;DHT22;35050;51.316;5.994;2023-06-04T01:04:04;15.80;78.90
49224;DHT22;35050;51.316;5.994;2023-06-04T01:06:39;15.80;79.40
49224;DHT22;35050;51.316;5.994;2023-06-04T01:09:05;15.70;79.50
49224;DHT22;35050;51.316;5.994;2023-06-04T01:11:36;15.80;79.80
49224;DHT22;35050;51.316;5.994;2023-06-04T01:14:03;15.80;79.80
49224;DHT22;35050;51.316;5.994;2023-06-04T01:16:34;15.70;79.80
49224;DHT22;35050;51.316;5.994;2023-06-04T01:19:02;15.70;80.40
49224;DHT22;35050;51.316;5.994;2023-06-04T01:21:30;15.40;81.50
49224;DHT22;35050;51.316;5.994;2023-06-04T01:24:00;15.40;81.90
49224;DHT22;35050;51.316;5.994;2023-06-04T01:26:31;15.40;81.80
49224;DHT22;35050;51.316;5.994;2023-06-04T01:28:58;15.40;82.40
49224;DHT22;35050;51.316;5.994;2023-06-04T01:31:25;15.50;82.40
49224;DHT22;35050;51.316;5.994;2023-06-04T01:33:54;15.30;83.00
49224;DHT22;35050;51.316;5.994;2023-06-04T01:36:23;15.20;83.50
49224;DHT22;35050;51.316;5.994;2023-06-04T01:38:49;15.30;83.60
49224;DHT22;35050;51.316;5.994;2023-06-04T01:41:14;15.20;83.90
49224;DHT22;35050;51.316;5.994;2023-06-04T01:43:40;15.10;84.40
49224;DHT22;35050;51.316;5.994;2023-06-04T01:46:06;15.30;84.20
49224;DHT22;35050;51.316;5.994;2023-06-04T01:48:31;15.30;84.30
49224;DHT22;35050;51.316;5.994;2023-06-04T01:50:57;15.30;84.60
49224;DHT22;35050;51.316;5.994;2023-06-04T01:53:23;15.20;84.80
49224;DHT22;35050;51.316;5.994;2023-06-04T01:55:49;15.00;85.00
49224;DHT22;35050;51.316;5.994;2023-06-04T01:58:18;15.10;85.40
49224;DHT22;35050;51.316;5.994;2023-06-04T02:00:55;14.90;85.80
49224;DHT22;35050;51.316;5.994;2023-06-04T02:03:25;15.00;86.20
49224;DHT22;35050;51.316;5.994;2023-06-04T02:05:51;15.10;86.00
49224;DHT22;35050;51.316;5.994;2023-06-04T02:08:17;14.90;86.40
49224;DHT22;35050;51.316;5.994;2023-06-04T02:10:45;14.90;86.70
49224;DHT22;35050;51.316;5.994;2023-06-04T02:13:12;14.80;87.10
49224;DHT22;35050;51.316;5.994;2023-06-04T02:15:38;14.90;87.20
49224;DHT22;35050;51.316;5.994;2023-06-04T02:18:17;14.90;87.70
49224;DHT22;35050;51.316;5.994;2023-06-04T02:20:46;14.90;87.90
49224;DHT22;35050;51.316;5.994;2023-06-04T02:23:12;14.90;87.70
49224;DHT22;35050;51.316;5.994;2023-06-04T02:25:38;14.80;88.40
49224;DHT22;35050;51.316;5.994;2023-06-04T02:28:04;14.50;89.60
49224;DHT22;35050;51.316;5.994;2023-06-04T02:30:30;14.70;89.20
49224;DHT22;35050;51.316;5.994;2023-06-04T02:32:55;14.70;89.20
49224;DHT22;35050;51.316;5.994;2023-06-04T02:35:21;14.70;89.50
49224;DHT22;35050;51.316;5.994;2023-06-04T02:37:49;14.70;89.70
49224;DHT22;35050;51.316;5.994;2023-06-04T02:40:15;14.60;90.00
49224;DHT22;35050;51.316;5.994;2023-06-04T02:42:40;14.70;90.00
49224;DHT22;35050;51.316;5.994;2023-06-04T02:45:06;14.40;90.30
49224;DHT22;35050;51.316;5.994;2023-06-04T02:47:32;14.50;90.40
49224;DHT22;35050;51.316;5.994;2023-06-04T02:49:58;14.50;90.70
49224;DHT22;35050;51.316;5.994;2023-06-04T02:52:23;14.40;91.20
49224;DHT22;35050;51.316;5.994;2023-06-04T02:54:50;14.50;90.80
49224;DHT22;35050;51.316;5.994;2023-06-04T02:57:16;14.50;90.80
49224;DHT22;35050;51.316;5.994;2023-06-04T02:59:42;14.50;90.90
49224;DHT22;35050;51.316;5.994;2023-06-04T03:02:07;14.50;91.00
49224;DHT22;35050;51.316;5.994;2023-06-04T03:04:33;14.50;91.00
49224;DHT22;35050;51.316;5.994;2023-06-04T03:07:03;14.40;91.20
49224;DHT22;35050;51.316;5.994;2023-06-04T03:09:30;14.40;91.40
49224;DHT22;35050;51.316;5.994;2023-06-04T03:12:02;14.50;91.30
49224;DHT22;35050;51.316;5.994;2023-06-04T03:14:29;14.40;91.50
49224;DHT22;35050;51.316;5.994;2023-06-04T03:17:01;14.20;91.80
49224;DHT22;35050;51.316;5.994;2023-06-04T03:19:34;14.20;92.00
49224;DHT22;35050;51.316;5.994;2023-06-04T03:22:00;14.40;91.80
49224;DHT22;35050;51.316;5.994;2023-06-04T03:24:26;14.30;91.90
49224;DHT22;35050;51.316;5.994;2023-06-04T03:26:52;14.20;92.20
49224;DHT22;35050;51.316;5.994;2023-06-04T03:29:17;14.30;92.30
49224;DHT22;35050;51.316;5.994;2023-06-04T03:31:44;14.30;92.40
49224;DHT22;35050;51.316;5.994;2023-06-04T03:34:10;14.20;92.40
49224;DHT22;35050;51.316;5.994;2023-06-04T03:36:36;14.10;92.90
49224;DHT22;35050;51.316;5.994;2023-06-04T03:39:03;14.20;93.00
49224;DHT22;35050;51.316;5.994;2023-06-04T03:41:30;14.10;93.20
49224;DHT22;35050;51.316;5.994;2023-06-04T03:43:56;14.00;93.50
49224;DHT22;35050;51.316;5.994;2023-06-04T03:46:21;14.00;93.60
49224;DHT22;35050;51.316;5.994;2023-06-04T03:48:47;13.90;94.00
49224;DHT22;35050;51.316;5.994;2023-06-04T03:51:12;13.80;94.20
49224;DHT22;35050;51.316;5.994;2023-06-04T03:53:38;14.00;94.10
49224;DHT22;35050;51.316;5.994;2023-06-04T03:56:04;14.00;94.10
49224;DHT22;35050;51.316;5.994;2023-06-04T03:58:29;14.00;94.10
49224;DHT22;35050;51.316;5.994;2023-06-04T04:00:55;14.10;94.20
49224;DHT22;35050;51.316;5.994;2023-06-04T04:03:22;13.90;94.30
49224;DHT22;35050;51.316;5.994;2023-06-04T04:05:48;14.00;94.70
49224;DHT22;35050;51.316;5.994;2023-06-04T04:08:13;13.90;94.70
49224;DHT22;35050;51.316;5.994;2023-06-04T04:10:41;13.90;95.10
49224;DHT22;35050;51.316;5.994;2023-06-04T04:13:07;14.00;95.00
49224;DHT22;35050;51.316;5.994;2023-06-04T04:15:33;14.00;95.20
49224;DHT22;35050;51.316;5.994;2023-06-04T04:17:59;14.00;95.10
49224;DHT22;35050;51.316;5.994;2023-06-04T04:20:25;14.10;95.10
49224;DHT22;35050;51.316;5.994;2023-06-04T04:22:51;14.20;95.10
49224;DHT22;35050;51.316;5.994;2023-06-04T04:25:16;14.10;95.20
49224;DHT22;35050;51.316;5.994;2023-06-04T04:27:42;14.10;95.20
49224;DHT22;35050;51.316;5.994;2023-06-04T04:30:08;14.10;95.60
49224;DHT22;35050;51.316;5.994;2023-06-04T04:32:34;14.00;95.80
49224;DHT22;35050;51.316;5.994;2023-06-04T04:35:04;13.90;96.00
49224;DHT22;35050;51.316;5.994;2023-06-04T04:37:29;13.90;96.20
49224;DHT22;35050;51.316;5.994;2023-06-04T04:39:55;14.00;96.30
49224;DHT22;35050;51.316;5.994;2023-06-04T04:42:21;14.00;96.20
49224;DHT22;35050;51.316;5.994;2023-06-04T04:44:46;14.10;96.40
49224;DHT22;35050;51.316;5.994;2023-06-04T04:47:16;14.10;96.50
49224;DHT22;35050;51.316;5.994;2023-06-04T04:49:42;14.30;96.30
49224;DHT22;35050;51.316;5.994;2023-06-04T04:52:07;14.40;96.10
49224;DHT22;35050;51.316;5.994;2023-06-04T04:54:33;14.20;96.40
49224;DHT22;35050;51.316;5.994;2023-06-04T04:56:58;14.20;96.40
49224;DHT22;35050;51.316;5.994;2023-06-04T04:59:24;14.30;96.60
49224;DHT22;35050;51.316;5.994;2023-06-04T05:01:51;14.30;96.60
49224;DHT22;35050;51.316;5.994;2023-06-04T05:04:16;14.30;96.40
49224;DHT22;35050;51.316;5.994;2023-06-04T05:06:42;14.40;96.40
49224;DHT22;35050;51.316;5.994;2023-06-04T05:09:08;14.40;96.30
49224;DHT22;35050;51.316;5.994;2023-06-04T05:11:33;14.40;96.50
49224;DHT22;35050;51.316;5.994;2023-06-04T05:13:59;14.50;96.10
49224;DHT22;35050;51.316;5.994;2023-06-04T05:16:25;14.60;96.10
49224;DHT22;35050;51.316;5.994;2023-06-04T05:18:53;14.50;96.00
49224;DHT22;35050;51.316;5.994;2023-06-04T05:21:22;14.50;96.10
49224;DHT22;35050;51.316;5.994;2023-06-04T05:23:47;14.60;96.30
49224;DHT22;35050;51.316;5.994;2023-06-04T05:26:13;14.60;96.50
49224;DHT22;35050;51.316;5.994;2023-06-04T05:28:40;14.70;96.30
49224;DHT22;35050;51.316;5.994;2023-06-04T05:31:09;14.90;95.90
49224;DHT22;35050;51.316;5.994;2023-06-04T05:33:35;14.80;95.60
49224;DHT22;35050;51.316;5.994;2023-06-04T05:36:01;15.00;95.60
49224;DHT22;35050;51.316;5.994;2023-06-04T05:38:27;15.00;95.40
49224;DHT22;35050;51.316;5.994;2023-06-04T05:40:55;14.80;95.50
49224;DHT22;35050;51.316;5.994;2023-06-04T05:43:21;14.80;95.80
49224;DHT22;35050;51.316;5.994;2023-06-04T05:45:47;14.80;95.70
49224;DHT22;35050;51.316;5.994;2023-06-04T05:48:13;15.00;95.40
49224;DHT22;35050;51.316;5.994;2023-06-04T05:50:38;15.30;95.20
49224;DHT22;35050;51.316;5.994;2023-06-04T05:53:04;15.20;95.10
49224;DHT22;35050;51.316;5.994;2023-06-04T05:55:30;15.30;94.70
49224;DHT22;35050;51.316;5.994;2023-06-04T05:57:55;15.40;94.80
49224;DHT22;35050;51.316;5.994;2023-06-04T06:00:21;15.40;94.40
49224;DHT22;35050;51.316;5.994;2023-06-04T06:02:49;15.50;94.40
49224;DHT22;35050;51.316;5.994;2023-06-04T06:05:15;15.60;94.30
49224;DHT22;35050;51.316;5.994;2023-06-04T06:07:41;15.60;94.20
49224;DHT22;35050;51.316;5.994;2023-06-04T06:10:07;15.60;93.50
49224;DHT22;35050;51.316;5.994;2023-06-04T06:12:33;15.60;93.70
49224;DHT22;35050;51.316;5.994;2023-06-04T06:14:59;15.60;93.80
49224;DHT22;35050;51.316;5.994;2023-06-04T06:17:25;15.80;93.70
49224;DHT22;35050;51.316;5.994;2023-06-04T06:19:52;16.10;93.00
49224;DHT22;35050;51.316;5.994;2023-06-04T06:22:17;16.20;92.60
49224;DHT22;35050;51.316;5.994;2023-06-04T06:24:43;16.30;92.30
49224;DHT22;35050;51.316;5.994;2023-06-04T06:27:10;16.50;92.20
49224;DHT22;35050;51.316;5.994;2023-06-04T06:29:35;16.40;92.10
49224;DHT22;35050;51.316;5.994;2023-06-04T06:32:02;16.30;92.00
49224;DHT22;35050;51.316;5.994;2023-06-04T06:34:28;16.50;91.60
49224;DHT22;35050;51.316;5.994;2023-06-04T06:36:54;16.50;91.40
49224;DHT22;35050;51.316;5.994;2023-06-04T06:39:20;16.80;91.30
49224;DHT22;35050;51.316;5.994;2023-06-04T06:41:46;16.80;90.80
49224;DHT22;35050;51.316;5.994;2023-06-04T06:44:11;16.90;90.20
49224;DHT22;35050;51.316;5.994;2023-06-04T06:46:37;16.80;89.70
49224;DHT22;35050;51.316;5.994;2023-06-04T06:49:03;17.10;89.80
49224;DHT22;35050;51.316;5.994;2023-06-04T06:51:28;17.20;89.70
49224;DHT22;35050;51.316;5.994;2023-06-04T06:53:54;17.30;89.50
49224;DHT22;35050;51.316;5.994;2023-06-04T06:56:20;17.50;88.30
49224;DHT22;35050;51.316;5.994;2023-06-04T06:58:45;17.60;87.90
49224;DHT22;35050;51.316;5.994;2023-06-04T07:01:12;17.60;87.20
49224;DHT22;35050;51.316;5.994;2023-06-04T07:03:38;18.00;87.10
49224;DHT22;35050;51.316;5.994;2023-06-04T07:06:05;17.90;86.70
49224;DHT22;35050;51.316;5.994;2023-06-04T07:08:31;18.00;87.60
49224;DHT22;35050;51.316;5.994;2023-06-04T07:10:58;18.10;87.50
49224;DHT22;35050;51.316;5.994;2023-06-04T07:13:23;18.40;87.10
49224;DHT22;35050;51.316;5.994;2023-06-04T07:15:49;18.40;86.60
49224;DHT22;35050;51.316;5.994;2023-06-04T07:18:15;18.60;86.70
49224;DHT22;35050;51.316;5.994;2023-06-04T07:20:40;18.50;84.40
49224;DHT22;35050;51.316;5.994;2023-06-04T07:23:06;18.50;85.00
49224;DHT22;35050;51.316;5.994;2023-06-04T07:25:32;18.70;85.10
49224;DHT22;35050;51.316;5.994;2023-06-04T07:27:58;18.80;84.20
49224;DHT22;35050;51.316;5.994;2023-06-04T07:30:25;18.80;84.30
49224;DHT22;35050;51.316;5.994;2023-06-04T07:32:50;19.20;85.70
49224;DHT22;35050;51.316;5.994;2023-06-04T07:35:16;19.20;84.40
49224;DHT22;35050;51.316;5.994;2023-06-04T07:37:42;19.10;83.50
49224;DHT22;35050;51.316;5.994;2023-06-04T07:40:11;19.50;84.00
49224;DHT22;35050;51.316;5.994;2023-06-04T07:42:37;19.60;83.10
49224;DHT22;35050;51.316;5.994;2023-06-04T07:45:03;19.80;82.90
49224;DHT22;35050;51.316;5.994;2023-06-04T07:47:29;19.90;81.20
49224;DHT22;35050;51.316;5.994;2023-06-04T07:49:55;19.90;81.10
49224;DHT22;35050;51.316;5.994;2023-06-04T07:52:20;19.90;80.20
49224;DHT22;35050;51.316;5.994;2023-06-04T07:54:46;20.00;80.20
49224;DHT22;35050;51.316;5.994;2023-06-04T07:57:12;20.30;79.80
49224;DHT22;35050;51.316;5.994;2023-06-04T07:59:38;20.50;79.30
49224;DHT22;35050;51.316;5.994;2023-06-04T08:02:03;20.50;79.40
49224;DHT22;35050;51.316;5.994;2023-06-04T08:04:30;20.80;79.40
49224;DHT22;35050;51.316;5.994;2023-06-04T08:06:56;21.00;78.80
49224;DHT22;35050;51.316;5.994;2023-06-04T08:09:22;21.10;78.50
49224;DHT22;35050;51.316;5.994;2023-06-04T08:11:49;21.00;77.40
49224;DHT22;35050;51.316;5.994;2023-06-04T08:14:14;21.20;76.60
49224;DHT22;35050;51.316;5.994;2023-06-04T08:16:40;21.50;75.70
49224;DHT22;35050;51.316;5.994;2023-06-04T08:19:06;21.50;76.80
49224;DHT22;35050;51.316;5.994;2023-06-04T08:21:33;21.70;76.70
49224;DHT22;35050;51.316;5.994;2023-06-04T08:23:59;21.90;75.50
49224;DHT22;35050;51.316;5.994;2023-06-04T08:26:25;22.00;75.30
49224;DHT22;35050;51.316;5.994;2023-06-04T08:28:52;22.20;74.60
49224;DHT22;35050;51.316;5.994;2023-06-04T08:31:18;22.00;73.40
49224;DHT22;35050;51.316;5.994;2023-06-04T08:33:46;22.00;73.60
49224;DHT22;35050;51.316;5.994;2023-06-04T08:36:13;22.30;73.30
49224;DHT22;35050;51.316;5.994;2023-06-04T08:38:38;22.50;74.10
49224;DHT22;35050;51.316;5.994;2023-06-04T08:41:16;22.60;72.40
49224;DHT22;35050;51.316;5.994;2023-06-04T08:43:42;22.70;72.20
49224;DHT22;35050;51.316;5.994;2023-06-04T08:46:11;22.90;71.70
49224;DHT22;35050;51.316;5.994;2023-06-04T08:48:38;22.80;71.90
49224;DHT22;35050;51.316;5.994;2023-06-04T08:51:05;22.80;70.40
49224;DHT22;35050;51.316;5.994;2023-06-04T08:53:34;22.90;70.00
49224;DHT22;35050;51.316;5.994;2023-06-04T08:56:00;23.00;70.50
49224;DHT22;35050;51.316;5.994;2023-06-04T08:58:26;22.70;70.80
49224;DHT22;35050;51.316;5.994;2023-06-04T09:00:53;23.10;71.80
49224;DHT22;35050;51.316;5.994;2023-06-04T09:03:19;23.10;69.70
49224;DHT22;35050;51.316;5.994;2023-06-04T09:05:47;23.50;70.60
49224;DHT22;35050;51.316;5.994;2023-06-04T09:08:17;22.70;68.70
49224;DHT22;35050;51.316;5.994;2023-06-04T09:10:44;23.10;69.50
49224;DHT22;35050;51.316;5.994;2023-06-04T09:13:13;23.40;68.90
49224;DHT22;35050;51.316;5.994;2023-06-04T09:15:40;23.40;67.20
49224;DHT22;35050;51.316;5.994;2023-06-04T09:18:06;23.70;66.90
49224;DHT22;35050;51.316;5.994;2023-06-04T09:20:31;23.80;65.80
49224;DHT22;35050;51.316;5.994;2023-06-04T09:22:58;24.10;66.10
49224;DHT22;35050;51.316;5.994;2023-06-04T09:25:27;24.20;65.40
49224;DHT22;35050;51.316;5.994;2023-06-04T09:27:54;24.20;65.10
49224;DHT22;35050;51.316;5.994;2023-06-04T09:30:21;24.20;64.10
49224;DHT22;35050;51.316;5.994;2023-06-04T09:32:47;24.30;64.20
49224;DHT22;35050;51.316;5.994;2023-06-04T09:35:16;24.30;65.20
49224;DHT22;35050;51.316;5.994;2023-06-04T09:37:55;24.60;63.30
49224;DHT22;35050;51.316;5.994;2023-06-04T09:40:24;24.50;63.30
49224;DHT22;35050;51.316;5.994;2023-06-04T09:42:50;24.50;64.40
49224;DHT22;35050;51.316;5.994;2023-06-04T09:45:29;24.30;64.50
49224;DHT22;35050;51.316;5.994;2023-06-04T09:47:55;24.70;63.70
49224;DHT22;35050;51.316;5.994;2023-06-04T09:50:31;24.60;62.60
49224;DHT22;35050;51.316;5.994;2023-06-04T09:53:15;25.00;60.30
49224;DHT22;35050;51.316;5.994;2023-06-04T09:55:42;25.40;60.30
49224;DHT22;35050;51.316;5.994;2023-06-04T09:58:09;25.40;60.70
49224;DHT22;35050;51.316;5.994;2023-06-04T10:00:36;25.20;62.20
49224;DHT22;35050;51.316;5.994;2023-06-04T10:03:02;24.90;61.20
49224;DHT22;35050;51.316;5.994;2023-06-04T10:05:32;25.20;61.10
49224;DHT22;35050;51.316;5.994;2023-06-04T10:08:04;25.40;60.10
49224;DHT22;35050;51.316;5.994;2023-06-04T10:10:34;25.70;62.70
49224;DHT22;35050;51.316;5.994;2023-06-04T10:13:11;25.80;62.10
49224;DHT22;35050;51.316;5.994;2023-06-04T10:15:40;26.30;60.40
49224;DHT22;35050;51.316;5.994;2023-06-04T10:18:06;26.30;61.50
49224;DHT22;35050;51.316;5.994;2023-06-04T10:20:33;26.10;60.20
49224;DHT22;35050;51.316;5.994;2023-06-04T10:23:00;26.10;59.70
49224;DHT22;35050;51.316;5.994;2023-06-04T10:25:26;26.20;59.40
49224;DHT22;35050;51.316;5.994;2023-06-04T10:27:53;26.30;58.30
49224;DHT22;35050;51.316;5.994;2023-06-04T10:30:18;26.60;58.80
49224;DHT22;35050;51.316;5.994;2023-06-04T10:32:44;26.30;59.50
49224;DHT22;35050;51.316;5.994;2023-06-04T10:35:12;26.40;59.10
49224;DHT22;35050;51.316;5.994;2023-06-04T10:37:37;26.70;59.80
49224;DHT22;35050;51.316;5.994;2023-06-04T10:40:03;26.60;58.20
49224;DHT22;35050;51.316;5.994;2023-06-04T10:42:42;26.30;59.40
49224;DHT22;35050;51.316;5.994;2023-06-04T10:45:09;26.80;60.40
49224;DHT22;35050;51.316;5.994;2023-06-04T10:47:35;26.50;58.70
49224;DHT22;35050;51.316;5.994;2023-06-04T10:52:35;26.60;58.60
49224;DHT22;35050;51.316;5.994;2023-06-04T10:55:08;26.90;58.80
49224;DHT22;35050;51.316;5.994;2023-06-04T10:57:34;26.80;57.60
49224;DHT22;35050;51.316;5.994;2023-06-04T11:00:01;26.90;58.50
49224;DHT22;35050;51.316;5.994;2023-06-04T11:02:31;27.10;58.00
49224;DHT22;35050;51.316;5.994;2023-06-04T11:05:06;27.30;58.10
49224;DHT22;35050;51.316;5.994;2023-06-04T11:07:45;27.80;57.00
49224;DHT22;35050;51.316;5.994;2023-06-04T11:10:15;28.10;57.20
49224;DHT22;35050;51.316;5.994;2023-06-04T11:12:50;27.50;56.50
49224;DHT22;35050;51.316;5.994;2023-06-04T11:15:16;27.90;58.90
49224;DHT22;35050;51.316;5.994;2023-06-04T11:17:52;28.20;58.50
49224;DHT22;35050;51.316;5.994;2023-06-04T11:20:19;28.00;57.10
49224;DHT22;35050;51.316;5.994;2023-06-04T11:22:56;28.10;57.40
49224;DHT22;35050;51.316;5.994;2023-06-04T11:25:24;28.30;57.10
49224;DHT22;35050;51.316;5.994;2023-06-04T11:27:52;28.70;55.80
49224;DHT22;35050;51.316;5.994;2023-06-04T11:30:19;28.40;57.80
49224;DHT22;35050;51.316;5.994;2023-06-04T11:32:45;28.30;56.80
49224;DHT22;35050;51.316;5.994;2023-06-04T11:35:11;28.70;55.20
49224;DHT22;35050;51.316;5.994;2023-06-04T11:37:37;28.70;55.50
49224;DHT22;35050;51.316;5.994;2023-06-04T11:40:14;28.20;56.30
49224;DHT22;35050;51.316;5.994;2023-06-04T11:42:41;28.80;57.30
49224;DHT22;35050;51.316;5.994;2023-06-04T11:45:14;28.80;56.00
49224;DHT22;35050;51.316;5.994;2023-06-04T11:47:44;28.70;54.40
49224;DHT22;35050;51.316;5.994;2023-06-04T11:50:11;28.50;55.00
49224;DHT22;35050;51.316;5.994;2023-06-04T11:52:37;28.80;54.20
49224;DHT22;35050;51.316;5.994;2023-06-04T11:55:03;28.60;54.30
49224;DHT22;35050;51.316;5.994;2023-06-04T11:57:30;28.80;52.70
49224;DHT22;35050;51.316;5.994;2023-06-04T11:59:56;28.50;54.40
49224;DHT22;35050;51.316;5.994;2023-06-04T12:02:22;28.90;55.10
49224;DHT22;35050;51.316;5.994;2023-06-04T12:04:48;28.70;53.50
49224;DHT22;35050;51.316;5.994;2023-06-04T12:07:20;28.30;53.80
49224;DHT22;35050;51.316;5.994;2023-06-04T12:09:49;28.50;54.90
49224;DHT22;35050;51.316;5.994;2023-06-04T12:12:21;29.00;53.90
49224;DHT22;35050;51.316;5.994;2023-06-04T12:14:47;28.70;53.10
49224;DHT22;35050;51.316;5.994;2023-06-04T12:17:13;29.00;55.70
49224;DHT22;35050;51.316;5.994;2023-06-04T12:19:51;29.40;54.90
49224;DHT22;35050;51.316;5.994;2023-06-04T12:22:18;29.30;55.20
49224;DHT22;35050;51.316;5.994;2023-06-04T12:24:51;29.60;53.60
49224;DHT22;35050;51.316;5.994;2023-06-04T12:27:23;29.80;54.00
49224;DHT22;35050;51.316;5.994;2023-06-04T12:30:05;29.80;53.80
49224;DHT22;35050;51.316;5.994;2023-06-04T12:32:34;30.20;54.90
49224;DHT22;35050;51.316;5.994;2023-06-04T12:35:01;29.80;52.40
49224;DHT22;35050;51.316;5.994;2023-06-04T12:37:26;30.50;53.40
49224;DHT22;35050;51.316;5.994;2023-06-04T12:39:53;30.20;51.90
49224;DHT22;35050;51.316;5.994;2023-06-04T12:42:19;29.70;52.50
49224;DHT22;35050;51.316;5.994;2023-06-04T12:44:46;29.80;52.00
49224;DHT22;35050;51.316;5.994;2023-06-04T12:47:11;29.50;52.00
49224;DHT22;35050;51.316;5.994;2023-06-04T12:49:37;29.60;52.60
49224;DHT22;35050;51.316;5.994;2023-06-04T12:52:04;30.30;52.60
49224;DHT22;35050;51.316;5.994;2023-06-04T12:54:30;30.50;52.40
49224;DHT22;35050;51.316;5.994;2023-06-04T12:56:56;29.90;52.50
49224;DHT22;35050;51.316;5.994;2023-06-04T12:59:26;29.50;52.30
49224;DHT22;35050;51.316;5.994;2023-06-04T13:01:55;30.20;52.60
49224;DHT22;35050;51.316;5.994;2023-06-04T13:04:20;29.80;53.10
49224;DHT22;35050;51.316;5.994;2023-06-04T13:06:46;30.20;52.80
49224;DHT22;35050;51.316;5.994;2023-06-04T13:09:12;29.80;52.30
49224;DHT22;35050;51.316;5.994;2023-06-04T13:11:40;30.00;52.90
49224;DHT22;35050;51.316;5.994;2023-06-04T13:14:06;29.60;53.00
49224;DHT22;35050;51.316;5.994;2023-06-04T13:16:32;29.30;52.40
49224;DHT22;35050;51.316;5.994;2023-06-04T13:18:57;29.90;53.20
49224;DHT22;35050;51.316;5.994;2023-06-04T13:21:23;30.10;52.00
49224;DHT22;35050;51.316;5.994;2023-06-04T13:23:48;30.20;51.80
49224;DHT22;35050;51.316;5.994;2023-06-04T13:26:16;30.30;51.50
49224;DHT22;35050;51.316;5.994;2023-06-04T13:28:41;30.30;51.70
49224;DHT22;35050;51.316;5.994;2023-06-04T13:31:07;30.70;52.10
49224;DHT22;35050;51.316;5.994;2023-06-04T13:33:33;30.90;51.80
49224;DHT22;35050;51.316;5.994;2023-06-04T13:36:00;30.00;52.80
49224;DHT22;35050;51.316;5.994;2023-06-04T13:38:26;29.20;51.40
49224;DHT22;35050;51.316;5.994;2023-06-04T13:40:52;30.00;52.10
49224;DHT22;35050;51.316;5.994;2023-06-04T13:43:18;29.60;51.60
49224;DHT22;35050;51.316;5.994;2023-06-04T13:45:43;29.80;51.20
49224;DHT22;35050;51.316;5.994;2023-06-04T13:48:11;29.70;52.40
49224;DHT22;35050;51.316;5.994;2023-06-04T13:50:37;29.90;52.20
49224;DHT22;35050;51.316;5.994;2023-06-04T13:53:03;30.30;53.70
49224;DHT22;35050;51.316;5.994;2023-06-04T13:55:29;30.20;52.20
49224;DHT22;35050;51.316;5.994;2023-06-04T13:57:55;30.10;52.10
49224;DHT22;35050;51.316;5.994;2023-06-04T14:00:21;30.10;50.80
49224;DHT22;35050;51.316;5.994;2023-06-04T14:02:48;30.10;51.70
49224;DHT22;35050;51.316;5.994;2023-06-04T14:05:14;30.30;51.50
49224;DHT22;35050;51.316;5.994;2023-06-04T14:07:41;30.00;52.10
49224;DHT22;35050;51.316;5.994;2023-06-04T14:10:08;30.30;51.20
49224;DHT22;35050;51.316;5.994;2023-06-04T14:12:34;30.20;51.80
49224;DHT22;35050;51.316;5.994;2023-06-04T14:15:00;30.60;52.70
49224;DHT22;35050;51.316;5.994;2023-06-04T14:17:26;30.90;52.90
49224;DHT22;35050;51.316;5.994;2023-06-04T14:19:52;30.50;52.00
49224;DHT22;35050;51.316;5.994;2023-06-04T14:22:17;30.40;52.10
49224;DHT22;35050;51.316;5.994;2023-06-04T14:24:43;30.60;52.70
49224;DHT22;35050;51.316;5.994;2023-06-04T14:27:09;30.60;52.40
49224;DHT22;35050;51.316;5.994;2023-06-04T14:29:35;30.40;51.40
49224;DHT22;35050;51.316;5.994;2023-06-04T14:32:02;30.40;51.50
49224;DHT22;35050;51.316;5.994;2023-06-04T14:34:28;29.80;52.30
49224;DHT22;35050;51.316;5.994;2023-06-04T14:36:54;30.30;52.80
49224;DHT22;35050;51.316;5.994;2023-06-04T14:39:20;30.30;53.10
49224;DHT22;35050;51.316;5.994;2023-06-04T14:41:45;30.20;51.80
49224;DHT22;35050;51.316;5.994;2023-06-04T14:44:11;30.20;52.60
49224;DHT22;35050;51.316;5.994;2023-06-04T14:46:37;30.00;52.30
49224;DHT22;35050;51.316;5.994;2023-06-04T14:49:02;29.80;52.20
49224;DHT22;35050;51.316;5.994;2023-06-04T14:51:28;29.90;53.40
49224;DHT22;35050;51.316;5.994;2023-06-04T14:53:53;30.00;52.90
49224;DHT22;35050;51.316;5.994;2023-06-04T14:56:19;30.40;53.10
49224;DHT22;35050;51.316;5.994;2023-06-04T14:58:45;30.30;52.30
49224;DHT22;35050;51.316;5.994;2023-06-04T15:01:11;30.30;53.40
49224;DHT22;35050;51.316;5.994;2023-06-04T15:03:40;30.30;52.80
49224;DHT22;35050;51.316;5.994;2023-06-04T15:06:05;29.80;54.20
49224;DHT22;35050;51.316;5.994;2023-06-04T15:08:31;30.10;53.30
49224;DHT22;35050;51.316;5.994;2023-06-04T15:10:57;30.30;52.90
49224;DHT22;35050;51.316;5.994;2023-06-04T15:13:22;30.30;53.70
49224;DHT22;35050;51.316;5.994;2023-06-04T15:15:48;30.20;52.50
49224;DHT22;35050;51.316;5.994;2023-06-04T15:18:13;30.00;53.30
49224;DHT22;35050;51.316;5.994;2023-06-04T15:20:39;29.80;53.20
49224;DHT22;35050;51.316;5.994;2023-06-04T15:23:05;30.30;53.60
49224;DHT22;35050;51.316;5.994;2023-06-04T15:25:30;30.10;53.10
49224;DHT22;35050;51.316;5.994;2023-06-04T15:27:56;30.00;53.90
49224;DHT22;35050;51.316;5.994;2023-06-04T15:30:21;30.10;53.80
49224;DHT22;35050;51.316;5.994;2023-06-04T15:32:48;29.90;54.00